Time;durP1;ratioP1;P1;durP2;ratioP2;P2;SDS_P1;SDS_P2;PMS_P1;PMS_P2;Temp;Humidity;BMP_temperature;BMP_pressure;BME280_temperature;BME280_humidity;BME280_pressure;Samples;Min_cycle;Max_cycle;Signal;HPM_P1;HPM_P2
2022/06/06 00:02:07;;;;;;;24.98;16.65;;;10.60;88.10;;;;;;4972136;28;20119;-76
2022/06/06 00:04:36;;;;;;;24.05;16.52;;;10.60;88.10;;;;;;4966721;28;20039;-76
2022/06/06 00:07:05;;;;;;;23.48;17.48;;;10.60;88.10;;;;;;4965711;28;20512;-76
2022/06/06 00:09:33;;;;;;;28.05;16.75;;;10.60;88.00;;;;;;4965307;28;20054;-76
2022/06/06 00:12:03;;;;;;;27.00;17.98;;;10.60;88.00;;;;;;4972364;28;20170;-76
2022/06/06 00:14:31;;;;;;;28.35;18.90;;;10.60;88.00;;;;;;4956495;28;20038;-75
2022/06/06 00:16:59;;;;;;;31.58;18.80;;;10.50;88.00;;;;;;4961935;28;20452;-75
2022/06/06 00:19:27;;;;;;;31.27;18.27;;;10.50;88.00;;;;;;4963906;28;20066;-75
2022/06/06 00:21:55;;;;;;;32.95;19.05;;;10.50;88.00;;;;;;4939534;28;20065;-75
2022/06/06 00:24:23;;;;;;;30.58;17.23;;;10.50;88.00;;;;;;4967181;28;20043;-76
2022/06/06 00:26:50;;;;;;;29.77;17.88;;;10.50;88.00;;;;;;4972787;28;20489;-75
2022/06/06 00:29:20;;;;;;;28.63;17.80;;;10.50;88.10;;;;;;4975317;28;20042;-74
2022/06/06 00:34:51;;;;;;;27.73;16.38;;;10.40;88.10;;;;;;4968892;28;20039;-75
2022/06/06 00:37:29;;;;;;;30.40;17.23;;;10.40;88.10;;;;;;4970246;28;21891;-75
2022/06/06 00:39:58;;;;;;;30.13;16.38;;;10.40;88.20;;;;;;4943966;28;20070;-75
2022/06/06 00:42:29;;;;;;;25.50;15.55;;;10.40;88.20;;;;;;4972344;28;20057;-75
2022/06/06 00:45:19;;;;;;;23.50;15.45;;;10.40;88.20;;;;;;4958518;28;20481;-75
2022/06/06 00:47:51;;;;;;;31.15;16.15;;;10.30;88.20;;;;;;4975375;28;20054;-75
2022/06/06 00:50:45;;;;;;;23.00;15.98;;;10.30;88.20;;;;;;4968992;28;20049;-75
2022/06/06 00:53:15;;;;;;;26.90;15.88;;;10.30;88.30;;;;;;4968949;28;20074;-75
2022/06/06 00:55:47;;;;;;;20.08;14.63;;;10.30;88.30;;;;;;4973541;28;20042;-76
2022/06/06 00:58:21;;;;;;;26.67;15.73;;;10.30;88.30;;;;;;4975270;28;20489;-77
2022/06/06 01:00:51;;;;;;;27.17;16.08;;;10.30;88.40;;;;;;4961115;28;20051;-77
2022/06/06 01:03:24;;;;;;;24.55;14.77;;;10.30;88.40;;;;;;4975855;28;20061;-77
2022/06/06 01:05:54;;;;;;;26.20;14.52;;;10.30;88.40;;;;;;4973864;28;20047;-77
2022/06/06 01:08:23;;;;;;;22.42;14.75;;;10.20;88.40;;;;;;4974552;28;20042;-77
2022/06/06 01:10:51;;;;;;;24.63;13.80;;;10.20;88.50;;;;;;4976073;28;20381;-77
2022/06/06 01:13:22;;;;;;;21.17;14.07;;;10.20;88.50;;;;;;4974352;28;20481;-76
2022/06/06 01:15:59;;;;;;;21.73;14.07;;;10.20;88.50;;;;;;4958376;28;20065;-77
2022/06/06 01:18:48;;;;;;;19.92;13.27;;;10.20;88.60;;;;;;4975955;28;20053;-74
2022/06/06 01:21:40;;;;;;;20.23;12.95;;;10.20;88.60;;;;;;4966702;28;20538;-74
2022/06/06 01:24:19;;;;;;;20.38;11.75;;;10.20;88.60;;;;;;4978297;28;20049;-77
2022/06/06 01:27:10;;;;;;;14.52;11.32;;;10.20;88.60;;;;;;4955136;28;20051;-77
2022/06/06 01:29:44;;;;;;;18.08;12.23;;;10.20;88.60;;;;;;4954372;28;20404;-76
2022/06/06 01:32:16;;;;;;;22.02;12.75;;;10.20;88.60;;;;;;4975091;28;20374;-76
2022/06/06 01:34:44;;;;;;;22.40;12.88;;;10.20;88.60;;;;;;4971519;28;20404;-74
2022/06/06 01:37:39;;;;;;;19.15;12.32;;;10.20;88.60;;;;;;4957602;28;20369;-75
2022/06/06 01:40:14;;;;;;;18.70;12.73;;;10.20;88.70;;;;;;4972620;28;20062;-74
2022/06/06 01:43:02;;;;;;;17.02;13.02;;;10.20;88.70;;;;;;4961066;28;20047;-75
2022/06/06 01:45:40;;;;;;;17.42;12.20;;;10.20;88.70;;;;;;4957483;28;20047;-74
2022/06/06 01:48:15;;;;;;;17.65;12.93;;;10.20;88.70;;;;;;4974578;28;20050;-74
2022/06/06 01:50:44;;;;;;;17.92;13.02;;;10.20;88.70;;;;;;4967028;28;20054;-75
2022/06/06 01:53:16;;;;;;;19.17;12.32;;;10.20;88.70;;;;;;4972837;28;20047;-75
2022/06/06 01:55:46;;;;;;;20.13;13.30;;;10.20;88.80;;;;;;4950983;28;20485;-75
2022/06/06 01:58:22;;;;;;;25.23;13.00;;;10.20;88.70;;;;;;4973842;28;20055;-75
2022/06/06 02:00:51;;;;;;;21.25;12.70;;;10.20;88.80;;;;;;4973208;28;20039;-74
2022/06/06 02:03:19;;;;;;;18.90;13.35;;;10.20;88.80;;;;;;4973810;28;20051;-76
2022/06/06 02:05:48;;;;;;;16.90;12.05;;;10.20;88.80;;;;;;4973887;28;20483;-76
2022/06/06 02:08:16;;;;;;;18.98;12.35;;;10.20;88.80;;;;;;4973844;28;20043;-76
2022/06/06 02:10:44;;;;;;;19.02;12.27;;;10.20;88.80;;;;;;4974660;28;20039;-75
2022/06/06 02:13:12;;;;;;;14.65;12.18;;;10.20;88.80;;;;;;4972923;28;20053;-75
2022/06/06 02:15:44;;;;;;;13.98;12.23;;;10.20;88.80;;;;;;4943387;28;20062;-75
2022/06/06 02:18:12;;;;;;;20.08;13.20;;;10.20;88.80;;;;;;4973813;28;20046;-75
2022/06/06 02:20:40;;;;;;;16.88;12.65;;;10.20;88.90;;;;;;4972471;28;20042;-75
2022/06/06 02:23:08;;;;;;;16.70;12.55;;;10.20;88.90;;;;;;4970566;28;20055;-75
2022/06/06 02:25:36;;;;;;;21.38;12.77;;;10.20;88.90;;;;;;4972948;28;20047;-75
2022/06/06 02:28:05;;;;;;;17.52;12.27;;;10.20;88.90;;;;;;4973314;28;20523;-75
2022/06/06 02:30:34;;;;;;;22.38;12.85;;;10.20;88.90;;;;;;4955372;28;20401;-75
2022/06/06 02:33:03;;;;;;;18.95;13.13;;;10.20;88.90;;;;;;4973054;28;20050;-75
2022/06/06 02:35:37;;;;;;;20.17;13.10;;;10.20;89.00;;;;;;4974111;28;20065;-75
2022/06/06 02:38:05;;;;;;;21.42;12.27;;;10.20;89.00;;;;;;4974321;28;20047;-75
2022/06/06 02:40:33;;;;;;;16.77;12.30;;;10.20;88.90;;;;;;4971403;28;20042;-75
2022/06/06 02:43:01;;;;;;;16.77;12.52;;;10.20;88.90;;;;;;4972663;28;20046;-75
2022/06/06 02:45:29;;;;;;;13.52;10.88;;;10.20;89.00;;;;;;4954976;28;20492;-75
2022/06/06 02:47:59;;;;;;;15.95;10.90;;;10.20;89.00;;;;;;4956765;28;20420;-75
2022/06/06 02:50:31;;;;;;;21.25;12.10;;;10.10;89.00;;;;;;4968016;28;20495;-76
2022/06/06 02:52:59;;;;;;;17.02;11.63;;;10.10;89.00;;;;;;4972558;28;20062;-74
2022/06/06 02:55:27;;;;;;;15.88;11.43;;;10.10;89.00;;;;;;4962000;28;20115;-75
2022/06/06 02:57:54;;;;;;;13.23;11.00;;;10.10;89.00;;;;;;4972637;28;20393;-76
2022/06/06 03:00:26;;;;;;;15.00;10.23;;;10.10;89.00;;;;;;4971748;28;20046;-74
2022/06/06 03:02:54;;;;;;;13.20;10.45;;;10.20;89.00;;;;;;4971948;28;20049;-75
2022/06/06 03:05:32;;;;;;;16.83;10.32;;;10.20;89.00;;;;;;4972142;28;20050;-75
2022/06/06 03:08:15;;;;;;;14.18;10.05;;;10.20;89.10;;;;;;4966268;28;20046;-75
2022/06/06 03:10:54;;;;;;;14.48;10.85;;;10.10;89.00;;;;;;4958689;28;20511;-75
2022/06/06 03:13:41;;;;;;;11.43;9.32;;;10.10;89.00;;;;;;4973442;28;20043;-75
2022/06/06 03:22:38;;;;;;;13.18;8.48;;;10.10;89.00;;;;;;4974118;28;20497;-75
2022/06/06 03:25:13;;;;;;;13.73;10.05;;;10.10;89.00;;;;;;4970718;28;20062;-75
2022/06/06 03:27:59;;;;;;;15.52;10.65;;;10.20;89.00;;;;;;4973115;28;20385;-75
2022/06/06 03:30:48;;;;;;;13.90;10.25;;;10.10;89.00;;;;;;4961939;28;20389;-74
2022/06/06 03:33:34;;;;;;;16.80;10.93;;;10.10;89.00;;;;;;4974366;28;20051;-75
2022/06/06 03:36:18;;;;;;;14.07;10.85;;;10.20;89.00;;;;;;4958231;28;20500;-75
2022/06/06 03:39:01;;;;;;;15.88;10.65;;;10.10;89.00;;;;;;4965689;28;20051;-75
2022/06/06 03:41:49;;;;;;;15.68;11.55;;;10.10;89.00;;;;;;4963803;28;20062;-76
2022/06/06 03:44:27;;;;;;;16.42;11.35;;;10.10;89.00;;;;;;4971836;28;20403;-76
2022/06/06 03:47:14;;;;;;;15.52;10.73;;;10.10;89.00;;;;;;4957276;28;20065;-76
2022/06/06 03:49:54;;;;;;;14.20;11.02;;;10.20;89.00;;;;;;4965876;28;20046;-76
2022/06/06 03:52:36;;;;;;;17.80;11.40;;;10.10;89.00;;;;;;4954895;28;20483;-76
2022/06/06 03:55:12;;;;;;;20.58;11.27;;;10.10;89.00;;;;;;4962975;28;20042;-76
2022/06/06 03:57:42;;;;;;;16.73;11.57;;;10.10;89.00;;;;;;4966254;28;20047;-75
2022/06/06 04:00:12;;;;;;;18.73;12.30;;;10.10;89.00;;;;;;4967884;28;20055;-76
2022/06/06 04:02:42;;;;;;;18.02;12.15;;;10.10;89.00;;;;;;4971528;28;20045;-75
2022/06/06 04:05:15;;;;;;;19.33;12.75;;;10.10;89.10;;;;;;4971929;28;20046;-75
2022/06/06 04:07:44;;;;;;;19.48;13.48;;;10.10;89.10;;;;;;4973015;28;20066;-76
2022/06/06 04:10:13;;;;;;;20.20;12.80;;;10.10;89.10;;;;;;4972697;28;20043;-76
2022/06/06 04:12:53;;;;;;;19.45;13.25;;;10.10;89.10;;;;;;4955677;28;20047;-75
2022/06/06 04:15:20;;;;;;;19.02;13.43;;;10.10;89.20;;;;;;4955745;28;20046;-76
2022/06/06 04:17:51;;;;;;;18.73;13.07;;;10.10;89.10;;;;;;4973149;28;20043;-76
2022/06/06 04:20:31;;;;;;;19.23;13.50;;;10.10;89.10;;;;;;4956549;28;20053;-75
2022/06/06 04:23:29;;;;;;;19.02;12.75;;;10.10;89.20;;;;;;4958661;28;20043;-76
2022/06/06 04:26:31;;;;;;;21.17;13.30;;;10.10;89.20;;;;;;4968258;28;20050;-76
2022/06/06 04:29:10;;;;;;;18.52;13.30;;;10.10;89.20;;;;;;4972547;28;20054;-76
2022/06/06 04:31:58;;;;;;;19.85;13.25;;;10.20;89.20;;;;;;4971583;28;20054;-76
2022/06/06 04:34:47;;;;;;;20.27;12.52;;;10.20;89.10;;;;;;4971399;28;20055;-76
2022/06/06 04:37:28;;;;;;;21.63;13.98;;;10.20;89.20;;;;;;4971485;28;20421;-76
2022/06/06 04:40:04;;;;;;;21.73;13.90;;;10.20;89.20;;;;;;4972542;28;20054;-76
2022/06/06 04:42:50;;;;;;;19.52;13.82;;;10.20;89.20;;;;;;4972049;28;20047;-76
2022/06/06 04:45:30;;;;;;;20.00;14.02;;;10.20;89.20;;;;;;4970575;28;20046;-76
2022/06/06 04:48:01;;;;;;;26.02;15.13;;;10.20;89.20;;;;;;4965852;28;20043;-76
2022/06/06 04:50:29;;;;;;;21.27;14.68;;;10.20;89.20;;;;;;4954703;28;20054;-76
2022/06/06 04:53:03;;;;;;;23.88;13.90;;;10.20;89.20;;;;;;4966412;28;20047;-76
2022/06/06 04:55:33;;;;;;;19.60;13.75;;;10.20;89.20;;;;;;4972256;28;20051;-76
2022/06/06 04:58:02;;;;;;;22.33;13.68;;;10.20;89.20;;;;;;4956420;28;20369;-76
2022/06/06 05:00:42;;;;;;;21.08;14.15;;;10.20;89.20;;;;;;4954868;28;20058;-77
2022/06/06 05:03:10;;;;;;;20.50;14.55;;;10.20;89.30;;;;;;4971917;28;20547;-76
2022/06/06 05:06:01;;;;;;;20.52;14.40;;;10.20;89.20;;;;;;4971418;28;20047;-77
2022/06/06 05:09:06;;;;;;;21.52;14.05;;;10.20;89.20;;;;;;4959873;28;20508;-77
2022/06/06 05:11:55;;;;;;;24.67;15.23;;;10.20;89.20;;;;;;4967913;28;20050;-77
2022/06/06 05:14:53;;;;;;;21.75;15.02;;;10.20;89.20;;;;;;4969583;28;20088;-77
2022/06/06 05:17:36;;;;;;;;;;;10.20;89.30;;;;;;4961705;28;20047;-77
2022/06/06 05:20:30;;;;;;;20.25;13.55;;;10.20;89.20;;;;;;4971517;28;19929;-77
2022/06/06 05:23:06;;;;;;;24.10;13.38;;;10.20;89.20;;;;;;4968735;28;20055;-77
2022/06/06 05:25:40;;;;;;;21.00;14.65;;;10.30;89.20;;;;;;4970773;28;20039;-77
2022/06/06 05:28:24;;;;;;;17.85;12.95;;;10.30;89.20;;;;;;4971987;28;20054;-78
2022/06/06 05:31:12;;;;;;;17.67;13.07;;;10.30;89.20;;;;;;4972228;28;20051;-78
2022/06/06 05:33:53;;;;;;;18.77;13.07;;;10.30;89.30;;;;;;4969746;28;20077;-78
2022/06/06 05:36:32;;;;;;;21.80;13.27;;;10.30;89.30;;;;;;4974507;28;20043;-77
2022/06/06 05:39:49;;;;;;;18.35;13.02;;;10.30;89.20;;;;;;4970928;28;20050;-77
2022/06/06 05:42:20;;;;;;;14.43;10.88;;;10.30;89.30;;;;;;4876052;29;20427;-77
2022/06/06 05:45:28;;;;;;;12.75;7.88;;;10.40;89.30;;;;;;4880878;29;20056;-77
2022/06/06 05:48:30;;;;;;;9.00;8.10;;;10.50;89.30;;;;;;4885434;29;20053;-77
2022/06/06 05:51:27;;;;;;;13.02;7.57;;;10.50;89.20;;;;;;4878190;29;20045;-77
2022/06/06 05:54:27;;;;;;;8.55;6.25;;;10.50;89.20;;;;;;4877041;29;20049;-76
2022/06/06 05:57:23;;;;;;;11.63;7.25;;;10.60;89.20;;;;;;4878694;29;20117;-77
2022/06/06 06:00:03;;;;;;;11.25;6.35;;;10.60;89.10;;;;;;4883896;29;20044;-77
2022/06/06 06:02:50;;;;;;;10.02;6.88;;;10.70;89.10;;;;;;4875534;29;20674;-78
2022/06/06 06:05:26;;;;;;;8.00;6.30;;;10.70;89.00;;;;;;4886594;29;20048;-77
2022/06/06 06:08:09;;;;;;;13.68;6.03;;;10.70;89.00;;;;;;4883021;29;20064;-78
2022/06/06 06:10:49;;;;;;;5.68;5.15;;;10.80;88.90;;;;;;4878067;29;20057;-77
2022/06/06 06:13:47;;;;;;;7.88;5.85;;;10.80;88.90;;;;;;4876655;29;20053;-78
2022/06/06 06:16:17;;;;;;;8.43;5.93;;;10.80;88.80;;;;;;4879267;29;20523;-78
2022/06/06 06:19:10;;;;;;;8.52;5.82;;;10.80;88.80;;;;;;4895476;28;20436;-79
2022/06/06 06:21:54;;;;;;;7.05;5.57;;;10.90;88.80;;;;;;4962070;28;20051;-79
2022/06/06 06:24:31;;;;;;;4.55;4.00;;;11.00;88.70;;;;;;4972807;28;20051;-78
2022/06/06 06:27:01;;;;;;;4.45;4.03;;;11.00;88.70;;;;;;4961167;28;20027;-78
2022/06/06 06:29:29;;;;;;;4.68;3.53;;;11.10;88.50;;;;;;4973312;28;20132;-78
2022/06/06 06:32:20;;;;;;;8.25;4.03;;;11.10;88.50;;;;;;4958651;28;20043;-78
2022/06/06 06:35:15;;;;;;;4.32;3.50;;;11.20;88.40;;;;;;4973668;28;20050;-78
2022/06/06 06:37:46;;;;;;;3.90;2.90;;;11.20;88.40;;;;;;4961423;28;20071;-78
2022/06/06 06:40:43;;;;;;;3.75;2.60;;;11.20;88.20;;;;;;4961825;28;20054;-79
2022/06/06 06:43:24;;;;;;;4.57;2.88;;;11.20;88.10;;;;;;4973323;28;20042;-82
2022/06/06 06:46:07;;;;;;;3.42;2.78;;;11.20;88.00;;;;;;4974049;28;20047;-79
2022/06/06 06:48:43;;;;;;;2.80;2.53;;;11.20;88.00;;;;;;4972511;28;20091;-79
2022/06/06 06:51:32;;;;;;;3.70;2.58;;;11.30;88.00;;;;;;4946413;28;20051;-78
2022/06/06 06:54:34;;;;;;;3.88;2.55;;;11.30;87.90;;;;;;4974403;28;20047;-77
2022/06/06 06:57:09;;;;;;;4.35;2.47;;;11.30;87.80;;;;;;4971990;28;20047;-77
2022/06/06 06:59:52;;;;;;;5.85;3.30;;;11.30;87.70;;;;;;4967030;28;20046;-77
2022/06/06 07:09:27;;;;;;;6.35;3.03;;;11.40;87.20;;;;;;4968553;28;20057;-78
2022/06/06 07:12:17;;;;;;;3.38;2.60;;;11.50;87.10;;;;;;4956308;28;20043;-78
2022/06/06 07:15:05;;;;;;;3.15;2.38;;;11.50;87.00;;;;;;4968069;28;20519;-77
2022/06/06 07:17:39;;;;;;;3.10;2.80;;;11.70;86.80;;;;;;4955468;28;20408;-77
2022/06/06 07:20:11;;;;;;;4.45;3.13;;;11.80;86.60;;;;;;4969738;28;20054;-78
2022/06/06 07:23:00;;;;;;;4.20;3.30;;;11.90;86.40;;;;;;4968547;28;20050;-78
2022/06/06 07:25:34;;;;;;;5.03;3.47;;;12.00;86.10;;;;;;4968156;28;20047;-78
2022/06/06 07:28:01;;;;;;;4.05;3.10;;;12.20;85.90;;;;;;4947071;28;20046;-78
2022/06/06 07:30:35;;;;;;;4.78;2.60;;;12.30;85.60;;;;;;4958132;28;20067;-77
2022/06/06 07:33:03;;;;;;;3.60;3.30;;;12.30;85.30;;;;;;4965089;28;20038;-77
2022/06/06 07:35:43;;;;;;;3.47;3.17;;;12.30;85.10;;;;;;4974148;28;20077;-77
2022/06/06 07:38:35;;;;;;;5.95;3.33;;;12.30;84.90;;;;;;4975158;28;20042;-77
2022/06/06 07:41:23;;;;;;;5.65;3.70;;;12.30;84.90;;;;;;4975035;28;20046;-77
2022/06/06 07:44:31;;;;;;;3.75;3.45;;;12.30;84.90;;;;;;4973029;28;20050;-77
2022/06/06 07:47:18;;;;;;;5.18;3.40;;;12.30;84.70;;;;;;4960815;28;20497;-77
2022/06/06 07:50:18;;;;;;;3.75;3.35;;;12.30;84.50;;;;;;4972631;28;20062;-77
2022/06/06 07:53:04;;;;;;;5.30;3.45;;;12.30;84.30;;;;;;4947715;28;20058;-77
2022/06/06 07:55:34;;;;;;;6.55;3.35;;;12.20;84.40;;;;;;4973099;28;20062;-77
2022/06/06 07:58:20;;;;;;;4.43;3.20;;;12.10;84.50;;;;;;4973146;28;20062;-77
2022/06/06 08:01:05;;;;;;;5.25;2.95;;;12.10;84.40;;;;;;4968217;28;20043;-77
2022/06/06 08:04:02;;;;;;;3.60;2.90;;;12.10;84.40;;;;;;4956496;28;20592;-77
2022/06/06 08:06:48;;;;;;;5.38;3.42;;;12.00;84.30;;;;;;4956413;28;20043;-77
2022/06/06 08:09:40;;;;;;;6.20;3.38;;;12.00;84.10;;;;;;4972822;28;20055;-77
2022/06/06 08:12:29;;;;;;;7.10;3.38;;;12.00;84.10;;;;;;4973512;28;20042;-77
2022/06/06 08:15:07;;;;;;;4.47;2.97;;;12.10;84.00;;;;;;4943241;28;20046;-77
2022/06/06 08:17:51;;;;;;;5.85;3.35;;;12.20;83.90;;;;;;4973117;28;20051;-77
2022/06/06 08:20:32;;;;;;;6.50;3.60;;;12.30;83.50;;;;;;4965734;28;20063;-77
2022/06/06 08:23:01;;;;;;;8.55;4.13;;;12.30;83.30;;;;;;4973045;28;20039;-77
2022/06/06 08:25:29;;;;;;;10.05;4.13;;;12.30;83.00;;;;;;4963257;28;20047;-77
2022/06/06 08:27:59;;;;;;;7.82;3.85;;;12.40;82.90;;;;;;4960668;28;20046;-77
2022/06/06 08:30:26;;;;;;;6.45;3.67;;;12.40;82.70;;;;;;4972902;28;20050;-77
2022/06/06 08:32:54;;;;;;;8.82;3.58;;;12.50;82.50;;;;;;4958725;28;20058;-77
2022/06/06 08:35:27;;;;;;;8.82;3.90;;;12.50;82.50;;;;;;4972925;28;20050;-77
2022/06/06 08:38:14;;;;;;;4.85;3.78;;;12.60;82.40;;;;;;4972797;28;20062;-77
2022/06/06 08:40:52;;;;;;;7.18;3.88;;;12.70;82.30;;;;;;4958308;28;20047;-77
2022/06/06 08:43:48;;;;;;;6.57;3.95;;;12.70;82.20;;;;;;4973110;28;20046;-77
2022/06/06 08:46:39;;;;;;;4.68;3.47;;;12.70;82.20;;;;;;4972497;28;20046;-77
2022/06/06 08:52:52;;;;;;;7.80;4.00;;;12.60;82.30;;;;;;4972784;28;20039;-77
2022/06/06 08:55:34;;;;;;;7.47;4.03;;;12.60;82.30;;;;;;4972538;28;20051;-76
2022/06/06 08:58:37;;;;;;;13.73;4.10;;;12.60;82.30;;;;;;4972613;28;20042;-76
2022/06/06 09:01:16;;;;;;;4.60;4.18;;;12.60;82.20;;;;;;4961132;28;20057;-76
2022/06/06 09:04:22;;;;;;;5.85;3.90;;;12.50;82.20;;;;;;4972989;28;20038;-76
2022/06/06 09:07:11;;;;;;;6.57;3.95;;;12.50;82.10;;;;;;4952138;28;20039;-77
2022/06/06 09:10:10;;;;;;;3.63;3.20;;;12.40;82.20;;;;;;4976324;28;20058;-77
2022/06/06 09:12:46;;;;;;;3.70;3.03;;;12.40;82.30;;;;;;4961212;28;20405;-77
2022/06/06 09:15:48;;;;;;;4.28;3.22;;;12.30;82.40;;;;;;4969579;28;20436;-77
2022/06/06 09:18:47;;;;;;;4.40;2.92;;;12.30;82.40;;;;;;4976527;28;20119;-77
2022/06/06 09:21:42;;;;;;;4.13;2.53;;;12.30;82.40;;;;;;4975305;28;20325;-77
2022/06/06 09:24:21;;;;;;;4.60;2.60;;;12.30;82.50;;;;;;4974561;28;20047;-77
2022/06/06 09:27:15;;;;;;;5.47;2.45;;;12.40;82.50;;;;;;4975966;28;20043;-77
2022/06/06 09:30:06;;;;;;;8.25;2.92;;;12.40;82.40;;;;;;4964331;28;20405;-77
2022/06/06 09:33:06;;;;;;;3.85;2.28;;;12.50;82.20;;;;;;4964728;28;20052;-77
2022/06/06 09:35:45;;;;;;;5.85;2.63;;;12.60;82.20;;;;;;4980482;28;20043;-77
2022/06/06 09:38:33;;;;;;;4.18;2.28;;;12.70;82.00;;;;;;4979386;28;20058;-77
2022/06/06 09:41:27;;;;;;;4.53;2.60;;;12.80;81.70;;;;;;4966338;28;20047;-77
2022/06/06 09:43:57;;;;;;;6.60;2.60;;;12.80;81.60;;;;;;4980839;28;20039;-77
2022/06/06 09:46:33;;;;;;;2.60;2.40;;;12.90;81.40;;;;;;4977041;28;20055;-77
2022/06/06 09:49:28;;;;;;;3.88;2.13;;;13.00;81.10;;;;;;4975920;28;20373;-77
2022/06/06 09:52:29;;;;;;;2.80;1.70;;;13.10;80.70;;;;;;4970659;28;20069;-77
2022/06/06 10:01:23;;;;;;;3.03;2.15;;;13.70;80.10;;;;;;4969348;28;20416;-77
2022/06/06 10:04:08;;;;;;;2.53;2.28;;;13.90;79.00;;;;;;4975436;28;20050;-76
2022/06/06 10:07:13;;;;;;;2.55;2.35;;;14.10;78.70;;;;;;4962719;28;20055;-77
2022/06/06 10:10:04;;;;;;;4.03;2.58;;;14.30;78.40;;;;;;4968341;28;20058;-77
2022/06/06 10:12:53;;;;;;;2.13;1.92;;;14.50;77.80;;;;;;4967240;28;20062;-77
2022/06/06 10:15:56;;;;;;;3.92;2.30;;;14.70;77.50;;;;;;4974702;28;20051;-76
2022/06/06 10:18:52;;;;;;;4.23;3.00;;;14.70;76.30;;;;;;4975053;28;20424;-77
2022/06/06 10:21:38;;;;;;;4.45;3.28;;;14.70;76.60;;;;;;4969946;28;20289;-77
2022/06/06 10:24:40;;;;;;;7.80;3.63;;;14.60;76.50;;;;;;4970919;28;20058;-77
2022/06/06 10:27:14;;;;;;;5.10;3.08;;;14.50;76.40;;;;;;4965822;28;20519;-77
2022/06/06 10:30:12;;;;;;;3.55;3.10;;;14.40;76.60;;;;;;4974028;28;20059;-76
2022/06/06 10:32:58;;;;;;;5.30;2.60;;;14.40;76.80;;;;;;4892540;29;20049;-76
2022/06/06 10:35:49;;;;;;;3.30;2.83;;;14.30;76.90;;;;;;4883301;29;20064;-76
2022/06/06 10:38:44;;;;;;;4.20;2.38;;;14.40;76.40;;;;;;4893180;29;20068;-76
2022/06/06 10:41:42;;;;;;;3.95;2.50;;;14.40;76.20;;;;;;4885306;29;20063;-76
2022/06/06 10:44:24;;;;;;;6.00;3.03;;;14.50;76.00;;;;;;4879179;29;20068;-76
2022/06/06 10:47:14;;;;;;;2.35;1.90;;;14.60;75.50;;;;;;4889258;29;20387;-76
2022/06/06 10:50:12;;;;;;;2.38;2.05;;;14.70;74.80;;;;;;4864465;29;20530;-76
2022/06/06 10:52:58;;;;;;;2.20;2.00;;;14.70;75.00;;;;;;4882576;29;20048;-76
2022/06/06 10:55:38;;;;;;;5.13;1.88;;;14.80;74.90;;;;;;4878528;29;20075;-75
2022/06/06 10:58:49;;;;;;;3.50;2.50;;;14.80;74.50;;;;;;4877456;29;20155;-75
2022/06/06 11:01:50;;;;;;;4.07;2.15;;;14.70;74.10;;;;;;4868869;29;20069;-76
2022/06/06 11:04:36;;;;;;;3.05;2.10;;;14.70;74.40;;;;;;4892324;29;20064;-76
2022/06/06 11:07:36;;;;;;;3.20;2.05;;;14.70;74.40;;;;;;4876707;29;20048;-76
2022/06/06 11:10:29;;;;;;;3.47;3.10;;;14.70;74.50;;;;;;4957495;28;20042;-76
2022/06/06 11:13:45;;;;;;;3.67;3.03;;;14.70;74.70;;;;;;4961368;28;20050;-75
2022/06/06 11:16:35;;;;;;;5.15;4.50;;;14.80;74.60;;;;;;4968179;28;20058;-76
2022/06/06 11:19:42;;;;;;;5.43;4.13;;;14.60;74.20;;;;;;4971910;28;20524;-76
2022/06/06 11:22:21;;;;;;;6.97;3.92;;;14.40;74.40;;;;;;4951138;28;20057;-76
2022/06/06 11:25:11;;;;;;;6.45;3.80;;;14.30;74.60;;;;;;4955879;28;20556;-76
2022/06/06 11:28:07;;;;;;;4.50;3.72;;;14.40;75.00;;;;;;4958795;28;20043;-76
2022/06/06 11:30:39;;;;;;;3.90;3.60;;;14.50;75.00;;;;;;4946079;28;20098;-76
2022/06/06 11:33:09;;;;;;;6.30;3.67;;;14.60;74.50;;;;;;4953032;28;20058;-76
2022/06/06 11:35:52;;;;;;;4.65;3.55;;;14.60;74.50;;;;;;4955168;28;20047;-76
2022/06/06 11:38:34;;;;;;;5.27;3.40;;;14.80;74.70;;;;;;4939960;29;20116;-76
2022/06/06 11:41:26;;;;;;;4.22;3.47;;;15.10;74.30;;;;;;4953376;28;20059;-76
2022/06/06 11:44:32;;;;;;;5.15;3.40;;;15.30;73.70;;;;;;4971417;28;20050;-75
2022/06/06 11:47:18;;;;;;;4.15;3.17;;;15.50;73.40;;;;;;4961407;28;20051;-75
2022/06/06 11:49:52;;;;;;;4.07;3.20;;;15.70;71.80;;;;;;4959604;28;20058;-76
2022/06/06 11:52:47;;;;;;;4.82;3.33;;;15.70;72.00;;;;;;4956170;28;20055;-75
2022/06/06 11:55:40;;;;;;;5.25;3.03;;;15.70;72.20;;;;;;4970951;28;20057;-76
2022/06/06 11:58:08;;;;;;;4.25;3.08;;;15.90;71.70;;;;;;4973521;28;20058;-75
2022/06/06 12:01:13;;;;;;;3.15;2.63;;;16.00;70.50;;;;;;4973600;28;20047;-75
2022/06/06 12:04:22;;;;;;;4.70;3.10;;;16.10;70.90;;;;;;4972220;28;20051;-74
2022/06/06 12:06:59;;;;;;;4.60;3.30;;;16.20;70.20;;;;;;4897036;29;20447;-74
2022/06/06 12:09:45;;;;;;;3.65;2.58;;;16.20;70.20;;;;;;4895480;29;20048;-74
2022/06/06 12:12:44;;;;;;;3.13;2.70;;;16.10;69.50;;;;;;4911362;29;20078;-74
2022/06/06 12:17:45;;;;;;;3.38;2.88;;;15.70;69.10;;;;;;5260837;23;20054;-76
2022/06/06 12:20:22;;;;;;;2.97;2.67;;;15.60;69.60;;;;;;4990637;28;20038;-76
2022/06/06 12:23:05;;;;;;;3.55;3.05;;;15.60;70.10;;;;;;4965093;28;20039;-78
2022/06/06 12:26:03;;;;;;;6.40;3.50;;;15.70;70.30;;;;;;4980207;28;20130;-75
2022/06/06 12:28:52;;;;;;;4.35;3.10;;;15.70;70.00;;;;;;4984587;28;20046;-74
2022/06/06 12:31:50;;;;;;;4.65;3.63;;;15.70;69.90;;;;;;4991091;28;20073;-75
2022/06/06 12:34:37;;;;;;;4.13;3.72;;;15.50;70.40;;;;;;4985643;28;20392;-76
2022/06/06 12:37:16;;;;;;;6.00;5.22;;;15.40;70.90;;;;;;4979115;28;20046;-76
2022/06/06 12:40:03;;;;;;;6.70;4.65;;;15.30;71.00;;;;;;4993935;28;20419;-76
2022/06/06 12:42:56;;;;;;;7.72;5.70;;;15.00;71.60;;;;;;4982012;28;20411;-76
2022/06/06 12:46:00;;;;;;;8.25;6.60;;;14.60;72.50;;;;;;4978877;28;20506;-75
2022/06/06 12:48:44;;;;;;;9.02;7.43;;;14.30;73.50;;;;;;4955092;28;20050;-76
2022/06/06 12:51:48;;;;;;;13.05;6.45;;;14.10;74.00;;;;;;4985511;28;20050;-76
2022/06/06 12:55:11;;;;;;;7.07;6.47;;;13.80;74.50;;;;;;4914102;29;20055;-76
2022/06/06 12:57:35;;;;;;;8.23;7.03;;;13.80;75.00;;;;;;4916164;29;20063;-76
2022/06/06 13:00:13;;;;;;;9.75;6.97;;;13.70;75.40;;;;;;4900488;29;20055;-74
2022/06/06 13:03:12;;;;;;;11.82;7.97;;;13.70;75.70;;;;;;4912234;29;20064;-75
2022/06/06 13:06:27;;;;;;;10.00;5.93;;;13.70;75.90;;;;;;4901909;29;20047;-74
2022/06/06 13:09:21;;;;;;;6.65;4.72;;;13.80;75.90;;;;;;4908876;29;20057;-74
2022/06/06 13:11:55;;;;;;;6.40;5.20;;;13.70;75.80;;;;;;4912859;29;20074;-75
2022/06/06 13:14:35;;;;;;;6.28;5.22;;;13.60;75.80;;;;;;4903275;29;20056;-75
2022/06/06 13:17:06;;;;;;;5.30;4.80;;;13.60;76.00;;;;;;4899900;29;20056;-75
2022/06/06 13:19:55;;;;;;;7.43;5.43;;;13.60;76.30;;;;;;4916085;29;20075;-75
2022/06/06 13:22:35;;;;;;;6.82;6.13;;;13.70;76.40;;;;;;4916611;29;20051;-75
2022/06/06 13:25:06;;;;;;;7.15;5.32;;;13.70;76.40;;;;;;4915838;29;20406;-75
2022/06/06 13:27:39;;;;;;;6.93;5.90;;;13.70;76.50;;;;;;4923386;29;20470;-75
2022/06/06 13:30:24;;;;;;;6.50;5.10;;;13.80;76.50;;;;;;4922205;29;20055;-74
2022/06/06 13:33:20;;;;;;;7.22;5.72;;;13.80;76.50;;;;;;4996058;28;20407;-75
2022/06/06 13:36:07;;;;;;;8.60;5.80;;;13.90;76.50;;;;;;4990893;28;20054;-75
2022/06/06 13:39:16;;;;;;;5.88;5.25;;;14.00;76.40;;;;;;4999728;28;20407;-75
2022/06/06 13:42:05;;;;;;;6.95;5.63;;;14.10;76.20;;;;;;4994478;28;20050;-75
2022/06/06 13:45:10;;;;;;;6.10;5.50;;;14.20;76.30;;;;;;4970068;28;20054;-75
2022/06/06 13:48:06;;;;;;;5.72;5.13;;;14.40;76.00;;;;;;4994154;28;20050;-75
2022/06/06 13:50:34;;;;;;;5.45;4.95;;;14.60;75.90;;;;;;4992472;28;20051;-75
2022/06/06 13:53:24;;;;;;;6.13;4.55;;;14.90;75.10;;;;;;4993971;28;20323;-75
2022/06/06 13:56:21;;;;;;;4.53;4.05;;;15.10;74.70;;;;;;4976381;28;20053;-75
2022/06/06 13:59:01;;;;;;;4.40;4.00;;;15.50;74.10;;;;;;4976535;28;20053;-75
2022/06/06 14:02:00;;;;;;;3.90;3.42;;;15.90;73.20;;;;;;4988566;28;20045;-75
2022/06/06 14:05:06;;;;;;;4.07;3.70;;;16.30;72.10;;;;;;4980227;28;20122;-76
2022/06/06 14:08:04;;;;;;;5.28;4.18;;;16.80;70.50;;;;;;4997948;28;20060;-76
2022/06/06 14:11:00;;;;;;;5.18;4.18;;;17.00;69.00;;;;;;4980173;28;20414;-74
2022/06/06 14:13:47;;;;;;;6.32;3.58;;;17.30;68.50;;;;;;4954283;29;20055;-76
2022/06/06 14:16:21;;;;;;;4.13;3.78;;;17.30;67.50;;;;;;4983831;28;20069;-76
2022/06/06 14:18:54;;;;;;;4.72;3.30;;;17.30;67.60;;;;;;4985708;28;20061;-76
2022/06/06 14:21:29;;;;;;;3.58;3.00;;;17.30;67.20;;;;;;4993594;28;20454;-76
2022/06/06 14:24:18;;;;;;;5.60;3.42;;;17.20;67.00;;;;;;4992928;28;20073;-76
2022/06/06 14:27:04;;;;;;;4.75;3.50;;;17.20;66.90;;;;;;4983001;28;20487;-76